Time;durP1;ratioP1;P1;durP2;ratioP2;P2;SDS_P1;SDS_P2;PMS_P1;PMS_P2;Temp;Humidity;BMP_temperature;BMP_pressure;BME280_temperature;BME280_humidity;BME280_pressure;Samples;Min_cycle;Max_cycle;Signal;HPM_P1;HPM_P2
2023/09/25 00:11:56;;;;;;;0.10;0.10;;;;;;;18.25;60.17;100252.81;5369664;26;20100;-96
2023/09/25 00:21:30;;;;;;;;;;;;;;;;;;;;;
2023/09/25 02:19:25;;;;;;;0.15;0.15;;;;;;;19.07;60.21;100160.19;5360951;26;20036;-93
2023/09/25 02:22:33;;;;;;;1.35;0.45;;;;;;;19.00;60.21;100157.06;5313447;26;20055;-94
2023/09/25 02:24:59;;;;;;;0.00;0.00;;;;;;;19.24;60.22;100160.00;5347298;26;20020;-93
2023/09/25 02:27:25;;;;;;;0.00;0.00;;;;;;;18.97;60.20;100155.47;5310547;26;20111;-95
2023/09/25 02:30:01;;;;;;;0.00;0.00;;;;;;;19.11;60.22;100140.56;5311130;26;20411;-93
2023/09/25 02:32:34;;;;;;;0.52;0.52;;;;;;;19.45;60.23;100132.28;5315030;26;20762;-93
2023/09/25 02:35:48;;;;;;;;;;;;;;;;;;;;;
2023/09/25 02:39:03;;;;;;;;;;;;;;;;;;;;;
2023/09/25 02:41:40;;;;;;;0.00;0.00;;;;;;;19.35;60.23;100117.94;5353904;26;20063;-94
2023/09/25 02:44:53;;;;;;;0.00;0.00;;;;;;;19.43;60.23;100120.12;5353166;26;20048;-93
2023/09/25 02:54:47;;;;;;;0.00;0.00;;;;;;;19.38;60.22;100135.37;5269363;27;20060;-94
2023/09/25 03:08:54;;;;;;;0.00;0.00;;;;;;;19.38;60.23;100143.31;5277136;27;20206;-95
2023/09/25 03:15:21;;;;;;;0.15;0.10;;;;;;;19.20;60.22;100167.28;5255590;27;20054;-94
2023/09/25 03:18:51;;;;;;;0.17;0.17;;;;;;;19.09;60.22;100164.41;5280171;27;20044;-94
2023/09/25 03:22:05;;;;;;;0.47;0.22;;;;;;;19.13;60.21;100173.84;5116439;27;21111;-94
2023/09/25 03:25:08;;;;;;;0.00;0.00;;;;;;;19.22;60.22;100177.72;5114927;27;20106;-93
2023/09/25 03:27:37;;;;;;;0.10;0.10;;;;;;;19.35;60.24;100185.72;5147611;27;20083;-93
2023/09/25 03:30:55;;;;;;;;;;;;;;;;;;;;;
2023/09/25 04:40:58;;;;;;;0.00;0.00;;;;;;;19.31;60.23;100304.72;5375331;26;20039;-96
2023/09/25 04:43:23;;;;;;;0.13;0.10;;;;;;;19.41;60.24;100306.81;5341054;26;20056;-92
2023/09/25 04:46:02;;;;;;;;;;;;;;;;;;;;;
2023/09/25 04:48:32;;;;;;;0.00;0.00;;;;;;;19.25;60.23;100304.22;5335228;26;35901;-94
2023/09/25 04:51:00;;;;;;;0.00;0.00;;;;;;;19.49;60.24;100301.91;5315067;26;20439;-92
2023/09/25 04:53:26;;;;;;;0.00;0.00;;;;;;;19.68;60.24;100310.47;5315008;26;20529;-93
2023/09/25 04:55:52;;;;;;;0.00;0.00;;;;;;;19.40;60.24;100308.59;5333307;26;20164;-92
2023/09/25 04:58:27;;;;;;;0.00;0.00;;;;;;;19.54;60.25;100311.28;5314156;26;20055;-91
2023/09/25 05:00:53;;;;;;;0.00;0.00;;;;;;;19.53;60.24;100312.22;5310183;26;20121;-92
2023/09/25 05:03:26;;;;;;;0.00;0.00;;;;;;;19.55;60.24;100309.50;5310181;26;20640;-93
2023/09/25 05:06:01;;;;;;;;;;;;;;;;;;;;;
2023/09/25 06:30:15;;;;;;;;;;;;;;;;;;;;;
2023/09/25 06:33:17;;;;;;;;;;;;;;;;;;;;;
2023/09/25 06:39:38;;;;;;;;;;;;;;;;;;;;;
2023/09/25 06:42:38;;;;;;;0.20;0.20;;;;;;;21.94;60.36;100368.06;5274749;27;36001;-95
2023/09/25 06:53:31;;;;;;;;;;;;;;;;;;;;;
2023/09/25 07:21:13;;;;;;;;;;;;;;;;;;;;;
2023/09/25 07:23:54;;;;;;;0.15;0.15;;;;;;;23.01;60.42;100380.84;5036098;28;35264;-96
2023/09/25 07:30:54;;;;;;;;;;;;;;;;;;;;;
2023/09/25 07:33:57;;;;;;;;;;;;;;;;;;;;;
2023/09/25 07:41:12;;;;;;;;;;;;;;;;;;;;;
2023/09/25 07:44:52;;;;;;;4.43;1.55;;;;;;;22.75;60.41;100398.66;5119737;27;36253;-96
2023/09/25 07:51:10;;;;;;;;;;;;;;;;;;;;;
2023/09/25 07:54:54;;;;;;;;;;;;;;;;;;;;;
2023/09/25 08:00:46;;;;;;;;;;;;;;;;;;;;;
2023/09/25 08:07:41;;;;;;;0.10;0.10;;;;;;;22.96;60.42;100435.16;5111801;28;20020;-95
2023/09/25 08:11:18;;;;;;;0.10;0.10;;;;;;;23.28;60.44;100446.06;5099961;27;20053;-96
2023/09/25 08:21:28;;;;;;;;;;;;;;;;;;;;;
2023/09/25 08:24:27;;;;;;;;;;;;;;;;;;;;;
2023/09/25 08:49:20;;;;;;;;;;;;;;;;;;;;;
2023/09/25 08:52:55;;;;;;;;;;;;;;;;;;;;;
2023/09/25 08:56:01;;;;;;;2.03;1.25;;;;;;;24.03;60.47;100435.09;5148895;27;36748;-95
2023/09/25 09:02:43;;;;;;;;;;;;;;;;;;;;;
2023/09/25 09:40:21;;;;;;;;;;;;;;;;;;;;;
2023/09/25 09:51:24;;;;;;;;;;;;;;;;;;;;;
2023/09/25 09:58:08;;;;;;;;;;;;;;;;;;;;;
2023/09/25 10:19:31;;;;;;;2.65;1.15;;;;;;;25.82;60.57;100447.34;4951059;29;20074;-96
2023/09/25 10:22:44;;;;;;;;;;;;;;;;;;;;;
2023/09/25 10:58:51;;;;;;;;;;;;;;;;;;;;;
2023/09/25 11:19:37;;;;;;;0.00;0.00;;;;;;;25.55;60.56;100426.47;4990290;28;20181;-96
2023/09/25 11:46:21;;;;;;;0.10;0.10;;;;;;;26.54;60.61;100402.81;5132900;28;20037;-94
2023/09/25 11:52:48;;;;;;;;;;;;;;;;;;;;;
2023/09/25 11:55:38;;;;;;;0.55;0.47;;;;;;;26.97;60.63;100388.28;5184352;27;35562;-95
2023/09/25 11:58:59;;;;;;;;;;;;;;;;;;;;;
2023/09/25 12:01:32;;;;;;;0.65;0.65;;;;;;;27.57;60.65;100381.00;5208540;27;36650;-96
2023/09/25 12:04:46;;;;;;;;;;;;;;;;;;;;;
2023/09/25 12:07:16;;;;;;;1.27;0.95;;;;;;;27.71;60.67;100375.25;5321958;27;35797;-96
2023/09/25 12:10:35;;;;;;;;;;;;;;;;;;;;;
2023/09/25 12:13:45;;;;;;;1.27;1.12;;;;;;;27.96;60.68;100375.63;5311942;27;20109;-96
2023/09/25 12:17:17;;;;;;;;;;;;;;;;;;;;;
2023/09/25 12:21:04;;;;;;;0.30;0.30;;;;;;;27.96;60.68;100368.44;5249672;27;35638;-96
2023/09/25 12:33:21;;;;;;;0.30;0.20;;;;;;;27.98;60.69;100347.72;5352711;26;20151;-96
2023/09/25 12:36:26;;;;;;;1.85;0.55;;;;;;;28.06;60.68;100349.66;5329649;26;20042;-96
2023/09/25 12:39:16;;;;;;;0.28;0.28;;;;;;;27.90;60.68;100352.09;5331461;26;20060;-96
2023/09/25 12:42:24;;;;;;;0.28;0.20;;;;;;;28.09;60.69;100350.19;5319118;26;20071;-96
2023/09/25 12:45:59;;;;;;;;;;;;;;;;;;;;;
2023/09/25 12:51:57;;;;;;;0.62;0.62;;;;;;;28.18;60.70;100339.63;5106496;27;20055;-96
2023/09/25 12:55:17;;;;;;;0.10;0.08;;;;;;;28.04;60.68;100354.31;5306133;26;20031;-96
2023/09/25 12:58:19;;;;;;;;;;;;;;;;;;;;;
2023/09/25 13:01:26;;;;;;;;;;;;;;;;;;;;;
2023/09/25 13:04:31;;;;;;;3.20;0.55;;;;;;;28.17;60.69;100345.97;5350902;26;35525;-96
2023/09/25 13:07:30;;;;;;;0.10;0.10;;;;;;;28.19;60.69;100349.34;5327940;26;20126;-96
2023/09/25 13:10:52;;;;;;;;;;;;;;;;;;;;;
2023/09/25 13:12:48;;;;;;;0.10;0.10;;;;;;;28.15;60.69;100359.47;5314663;26;20060;-96
2023/09/25 13:16:08;;;;;;;;;;;;;;;;;;;;;
2023/09/25 13:18:39;;;;;;;;;;;;;;;28.12;60.69;100349.91;5235174;26;35410;-96
2023/09/25 13:21:50;;;;;;;1.00;0.88;;;;;;;28.04;60.69;100359.66;5323712;26;19948;-96
2023/09/25 13:25:07;;;;;;;0.73;0.73;;;;;;;28.20;60.69;100345.66;5348782;26;20039;-96
2023/09/25 13:27:49;;;;;;;;;;;;;;;;;;;;;
2023/09/25 13:30:20;;;;;;;0.05;0.05;;;;;;;28.07;60.69;100351.34;5290638;27;35492;-96
2023/09/25 13:33:39;;;;;;;;;;;;;;;;;;;;;
2023/09/25 13:36:25;;;;;;;0.50;0.30;;;;;;;27.85;60.68;100352.53;5329409;27;35281;-96
2023/09/25 13:39:02;;;;;;;0.10;0.10;;;;;;;28.01;60.69;100351.94;5310121;27;20057;-96
2023/09/25 13:42:15;;;;;;;0.47;0.47;;;;;;;27.92;60.69;100352.78;5271828;27;20029;-96
2023/09/25 13:45:00;;;;;;;1.25;0.55;;;;;;;28.04;60.69;100355.16;5308118;27;20064;-96
2023/09/25 13:47:43;;;;;;;0.45;0.35;;;;;;;27.89;60.68;100347.72;5307859;27;20064;-96
2023/09/25 13:50:46;;;;;;;0.20;0.20;;;;;;;28.08;60.69;100337.81;5274147;27;20424;-96
2023/09/25 13:53:17;;;;;;;0.15;0.15;;;;;;;28.19;60.70;100342.16;5327063;27;20060;-96
2023/09/25 14:02:05;;;;;;;1.10;1.00;;;;;;;27.90;60.69;100339.56;5302622;27;20057;-96
2023/09/25 14:05:17;;;;;;;;;;;;;;;;;;;;;
2023/09/25 14:08:04;;;;;;;1.20;1.10;;;;;;;28.03;60.69;100325.88;5327703;27;35530;-96
2023/09/25 14:11:08;;;;;;;0.00;0.00;;;;;;;28.16;60.70;100331.75;5309385;27;20131;-96
2023/09/25 14:14:32;;;;;;;0.90;0.80;;;;;;;27.98;60.68;100317.44;5278961;27;20061;-96
2023/09/25 14:17:16;;;;;;;0.00;0.00;;;;;;;28.32;60.70;100331.09;5270313;27;20096;-96
2023/09/25 14:20:13;;;;;;;;;;;;;;;;;;;;;
2023/09/25 14:23:11;;;;;;;0.08;0.08;;;;;;;28.22;60.70;100325.78;5312408;27;35261;-96
2023/09/25 14:26:49;;;;;;;;;;;;;;;;;;;;;
2023/09/25 14:29:57;;;;;;;;;;;;;;;;;;;;;
2023/09/25 14:33:10;;;;;;;;;;;;;;;;;;;;;
2023/09/25 14:35:49;;;;;;;0.20;0.20;;;;;;;28.34;60.71;100319.25;5354101;26;35109;-96
2023/09/25 14:38:30;;;;;;;;;;;;;;;;;;;;;
2023/09/25 14:41:09;;;;;;;0.00;0.00;;;;;;;28.22;60.71;100319.59;5315813;26;35539;-96
2023/09/25 14:44:25;;;;;;;;;;;;;;;;;;;;;
2023/09/25 14:56:37;;;;;;;0.17;0.17;;;;;;;28.05;60.69;100321.19;5309398;26;20167;-96
2023/09/25 14:59:24;;;;;;;0.00;0.00;;;;;;;28.01;60.69;100318.00;5353444;26;20023;-94
2023/09/25 15:02:32;;;;;;;2.28;1.12;;;;;;;27.97;60.68;100313.09;5337588;26;20782;-95
2023/09/25 15:05:49;;;;;;;;;;;;;;;;;;;;;
2023/09/25 15:08:45;;;;;;;0.10;0.10;;;;;;;28.26;60.70;100316.50;5307512;26;35722;-96
2023/09/25 15:11:49;;;;;;;;;;;;;;;;;;;;;
2023/09/25 15:14:26;;;;;;;2.78;1.83;;;;;;;28.20;60.69;100311.72;5349744;26;35861;-96
2023/09/25 15:17:36;;;;;;;0.30;0.28;;;;;;;28.08;60.70;100315.56;5336768;26;20024;-96
2023/09/25 15:24:16;;;;;;;;;;;;;;;;;;;;;
2023/09/25 15:27:38;;;;;;;;;;;;;;;;;;;;;
2023/09/25 15:30:53;;;;;;;0.17;0.17;;;;;;;27.77;60.68;100329.19;5267686;27;36470;-96
2023/09/25 15:33:43;;;;;;;7.57;1.48;;;;;;;27.58;60.67;100328.37;5201058;27;20034;-96
2023/09/25 15:36:40;;;;;;;0.15;0.05;;;;;;;27.45;60.66;100334.03;5203938;27;20071;-96
2023/09/25 15:39:44;;;;;;;0.95;0.55;;;;;;;27.42;60.65;100336.97;5212380;27;20030;-96
2023/09/25 15:42:15;;;;;;;0.95;0.35;;;;;;;27.60;60.67;100337.09;5207154;27;20023;-96
2023/09/25 15:44:54;;;;;;;0.60;0.60;;;;;;;27.40;60.66;100338.94;5208101;27;20031;-96
2023/09/25 15:47:39;;;;;;;0.35;0.35;;;;;;;27.37;60.66;100336.56;5192277;27;20034;-96
2023/09/25 15:50:13;;;;;;;0.00;0.00;;;;;;;27.31;60.66;100339.81;5226245;27;20032;-96
2023/09/25 15:53:47;;;;;;;;;;;;;;;;;;;;;
2023/09/25 15:56:23;;;;;;;0.08;0.08;;;;;;;27.53;60.67;100344.84;5204508;27;36808;-96
2023/09/25 15:59:10;;;;;;;0.13;0.13;;;;;;;27.45;60.67;100342.91;5201294;27;20031;-96
2023/09/25 16:02:32;;;;;;;0.30;0.30;;;;;;;27.34;60.65;100342.19;5269558;27;20022;-96
2023/09/25 16:05:06;;;;;;;0.20;0.20;;;;;;;27.33;60.65;100344.03;5332677;26;20048;-95
2023/09/25 16:07:58;;;;;;;2.10;1.08;;;;;;;27.16;60.64;100348.25;5348855;26;20108;-96
2023/09/25 16:10:33;;;;;;;0.82;0.62;;;;;;;27.22;60.65;100341.50;5356116;26;20067;-94
2023/09/25 16:13:17;;;;;;;0.17;0.17;;;;;;;26.74;60.63;100347.62;5333455;26;20024;-95
2023/09/25 16:16:02;;;;;;;0.30;0.30;;;;;;;26.58;60.62;100348.16;5342094;26;20024;-96
2023/09/25 16:19:06;;;;;;;0.03;0.03;;;;;;;26.64;60.63;100344.09;5360049;26;20033;-96
2023/09/25 16:30:02;;;;;;;0.20;0.20;;;;;;;26.51;60.62;100347.03;5197070;27;20055;-96
2023/09/25 16:33:37;;;;;;;0.08;0.00;;;;;;;26.32;60.61;100344.25;5217712;27;20034;-96
2023/09/25 16:39:53;;;;;;;0.20;0.20;;;;;;;26.25;60.61;100351.09;5186037;27;20054;-96
2023/09/25 16:42:56;;;;;;;0.17;0.17;;;;;;;25.74;60.58;100357.31;5169295;27;20038;-96
2023/09/25 16:49:08;;;;;;;0.37;0.25;;;;;;;25.21;60.55;100368.00;5179664;27;20421;-95
2023/09/25 16:51:43;;;;;;;0.22;0.10;;;;;;;25.25;60.56;100369.41;5178307;27;20050;-95
2023/09/25 16:54:42;;;;;;;0.10;0.10;;;;;;;24.93;60.53;100365.87;5268448;27;20096;-95
2023/09/25 16:57:20;;;;;;;0.88;0.88;;;;;;;24.75;60.53;100369.06;5268454;27;20026;-95
2023/09/25 17:00:14;;;;;;;1.80;0.60;;;;;;;24.67;60.52;100368.87;5233521;27;20076;-94
2023/09/25 17:03:17;;;;;;;;;;;;;;;;;;;;;
2023/09/25 17:29:16;;;;;;;0.00;0.00;;;;;;;23.98;60.49;100393.88;5084585;28;20215;-96
2023/09/25 17:35:11;;;;;;;0.10;0.10;;;;;;;23.67;60.47;100398.06;5081722;28;20060;-95
2023/09/25 17:45:25;;;;;;;;;;;;;;;;;;;;;
2023/09/25 17:48:42;;;;;;;0.55;0.55;;;;;;;23.49;60.45;100405.56;5085942;28;36550;-96
2023/09/25 17:52:00;;;;;;;0.93;0.30;;;;;;;23.46;60.45;100416.44;5081847;27;20041;-96
2023/09/25 17:58:29;;;;;;;0.08;0.08;;;;;;;23.05;60.44;100409.72;5123979;27;20086;-95
2023/09/25 18:01:20;;;;;;;0.32;0.32;;;;;;;23.39;60.45;100416.03;5139380;27;20094;-96
2023/09/25 18:04:35;;;;;;;0.20;0.20;;;;;;;22.90;60.43;100430.25;5144214;27;20079;-96
2023/09/25 18:07:48;;;;;;;0.10;0.10;;;;;;;23.01;60.43;100423.34;5165127;27;20070;-96
2023/09/25 18:14:17;;;;;;;0.10;0.10;;;;;;;23.12;60.44;100426.87;5184352;27;20035;-96
2023/09/25 18:17:05;;;;;;;4.07;1.45;;;;;;;23.12;60.44;100418.91;5177427;27;20169;-96
2023/09/25 18:20:07;;;;;;;0.95;0.65;;;;;;;23.02;60.43;100420.56;5168572;27;20118;-96
2023/09/25 18:23:36;;;;;;;;;;;;;;;;;;;;;
2023/09/25 18:26:28;;;;;;;0.00;0.00;;;;;;;22.80;60.43;100421.25;5180495;27;20051;-96
2023/09/25 18:29:35;;;;;;;0.00;0.00;;;;;;;22.67;60.42;100418.59;5207572;27;20035;-96
2023/09/25 18:32:53;;;;;;;0.17;0.17;;;;;;;22.56;60.40;100430.97;5240507;26;20084;-96
2023/09/25 18:35:46;;;;;;;0.30;0.30;;;;;;;22.50;60.41;100432.25;5265710;27;20060;-95
2023/09/25 18:38:32;;;;;;;;;;;;;;;;;;;;;
2023/09/25 18:41:12;;;;;;;0.30;0.30;;;;;;;22.34;60.41;100419.22;5266090;27;36119;-96
2023/09/25 18:44:02;;;;;;;0.00;0.00;;;;;;;22.60;60.41;100421.81;5232839;27;20103;-96
2023/09/25 18:46:57;;;;;;;0.35;0.20;;;;;;;22.69;60.41;100426.47;5249358;27;20053;-96
2023/09/25 18:49:51;;;;;;;5.62;1.98;;;;;;;22.54;60.40;100430.22;5266662;27;20054;-95
2023/09/25 18:52:35;;;;;;;;;;;;;;;;;;;;;
2023/09/25 18:55:18;;;;;;;;;;;;;;;;;;;;;
2023/09/25 18:58:20;;;;;;;0.00;0.00;;;;;;;22.32;60.39;100437.03;5329707;26;35528;-95
2023/09/25 19:01:12;;;;;;;0.10;0.10;;;;;;;22.47;60.40;100435.09;5336251;26;20080;-96
2023/09/25 19:04:29;;;;;;;0.20;0.20;;;;;;;22.43;60.40;100438.06;5300282;26;20037;-96
2023/09/25 19:07:42;;;;;;;1.87;1.00;;;;;;;22.45;60.40;100442.31;5334359;26;20064;-96
2023/09/25 19:10:22;;;;;;;0.30;0.30;;;;;;;22.32;60.38;100447.66;5333144;26;20059;-96
2023/09/25 19:16:36;;;;;;;1.60;0.43;;;;;;;22.22;60.39;100445.72;5355525;26;20032;-96
2023/09/25 19:19:46;;;;;;;0.37;0.37;;;;;;;22.34;60.40;100447.53;5338211;26;20062;-96
2023/09/25 19:22:53;;;;;;;0.52;0.45;;;;;;;22.31;60.38;100445.94;5360958;26;20020;-96
2023/09/25 19:29:14;;;;;;;;;;;;;;;;;;;;;
2023/09/25 19:35:00;;;;;;;0.75;0.73;;;;;;;21.92;60.37;100452.16;5378070;26;20065;-96
2023/09/25 19:37:58;;;;;;;0.50;0.17;;;;;;;22.01;60.37;100456.00;5322995;26;20078;-96
2023/09/25 19:41:04;;;;;;;0.37;0.37;;;;;;;22.04;60.38;100454.00;5359720;26;20032;-96
2023/09/25 19:43:48;;;;;;;0.00;0.00;;;;;;;22.24;60.38;100457.94;5340144;26;20073;-96
2023/09/25 19:46:45;;;;;;;0.25;0.25;;;;;;;22.11;60.38;100448.28;5332917;26;20065;-96
2023/09/25 20:08:10;;;;;;;1.35;0.75;;;;;;;21.75;60.36;100458.56;5263252;26;20093;-95
2023/09/25 20:27:29;;;;;;;0.62;0.30;;;;;;;21.61;60.35;100457.81;5305867;26;20040;-95
2023/09/25 20:42:19;;;;;;;0.50;0.37;;;;;;;21.54;60.34;100460.03;5294749;26;19940;-96
2023/09/25 20:45:05;;;;;;;0.90;0.90;;;;;;;21.30;60.33;100459.00;5275122;26;20047;-94
2023/09/25 20:47:54;;;;;;;;;;;;;;;21.40;60.34;100460.09;5339741;26;20045;-96
2023/09/25 20:51:03;;;;;;;0.85;0.43;;;;;;;21.28;60.33;100460.87;5339693;26;19936;-96
2023/09/25 20:53:39;;;;;;;0.28;0.28;;;;;;;21.11;60.33;100454.84;5311129;27;20449;-95
2023/09/25 20:56:09;;;;;;;0.20;0.20;;;;;;;20.92;60.31;100462.25;5273640;27;20029;-96
2023/09/25 21:01:27;;;;;;;0.05;0.05;;;;;;;21.00;60.32;100467.91;5283320;27;20025;-96
2023/09/25 21:04:20;;;;;;;0.00;0.00;;;;;;;21.09;60.31;100469.12;5292870;27;20048;-96
2023/09/25 21:07:27;;;;;;;7.57;1.45;;;;;;;21.20;60.33;100468.44;5291786;27;20022;-94
2023/09/25 21:10:21;;;;;;;0.43;0.10;;;;;;;21.06;60.32;100456.09;5281115;27;20025;-96
2023/09/25 21:12:53;;;;;;;0.00;0.00;;;;;;;21.06;60.32;100466.69;5279824;27;20069;-95
2023/09/25 21:15:48;;;;;;;0.10;0.10;;;;;;;21.12;60.33;100461.00;5311500;27;20026;-95
2023/09/25 21:18:56;;;;;;;0.10;0.10;;;;;;;21.03;60.32;100458.91;5296671;27;20064;-96
2023/09/25 21:24:30;;;;;;;2.78;0.70;;;;;;;20.94;60.32;100460.37;5265954;27;20071;-96
2023/09/25 21:27:05;;;;;;;;;;;;;;;20.89;60.31;100462.47;5291934;27;20049;-96
2023/09/25 21:29:48;;;;;;;1.05;0.77;;;;;;;20.78;60.30;100465.78;5269654;27;19951;-96
2023/09/25 21:32:39;;;;;;;2.37;1.10;;;;;;;20.79;60.31;100470.13;5271746;27;20090;-96
2023/09/25 21:35:27;;;;;;;0.00;0.00;;;;;;;20.78;60.30;100471.06;5257022;27;20072;-96
2023/09/25 21:38:42;;;;;;;0.17;0.17;;;;;;;20.64;60.30;100470.25;5287713;27;20052;-96
2023/09/25 21:41:17;;;;;;;0.20;0.20;;;;;;;20.59;60.30;100467.03;5269832;27;20120;-96
2023/09/25 21:44:29;;;;;;;0.30;0.30;;;;;;;20.42;60.29;100471.56;5235522;27;20079;-96
2023/09/25 21:47:28;;;;;;;;;;;;;;;;;;;;;
2023/09/25 21:49:59;;;;;;;0.05;0.05;;;;;;;20.52;60.29;100459.47;5275134;27;35544;-95
2023/09/25 21:52:35;;;;;;;0.30;0.30;;;;;;;20.43;60.29;100464.47;5279512;27;20033;-94
2023/09/25 21:55:10;;;;;;;0.15;0.15;;;;;;;20.22;60.28;100463.97;5251740;27;20415;-96
2023/09/25 21:58:16;;;;;;;0.20;0.15;;;;;;;20.21;60.27;100456.97;5253858;27;20032;-96
2023/09/25 22:01:11;;;;;;;2.85;0.75;;;;;;;20.27;60.28;100461.88;5268301;27;20091;-95
2023/09/25 22:03:47;;;;;;;0.08;0.08;;;;;;;20.47;60.30;100458.06;5208435;27;20058;-96
2023/09/25 22:06:18;;;;;;;0.30;0.30;;;;;;;20.45;60.28;100458.16;5213163;27;20178;-96
2023/09/25 22:08:44;;;;;;;;;;;;;;;20.23;60.29;100460.37;5193232;27;20116;-96
2023/09/25 22:11:17;;;;;;;0.10;0.10;;;;;;;20.06;60.27;100457.87;5208329;27;19969;-96
2023/09/25 22:13:54;;;;;;;0.75;0.75;;;;;;;19.85;60.26;100465.28;5206540;27;20494;-96
2023/09/25 22:16:26;;;;;;;2.50;1.30;;;;;;;20.19;60.27;100461.50;5205683;27;20823;-95
2023/09/25 22:18:52;;;;;;;0.10;0.10;;;;;;;20.17;60.28;100455.47;5222791;27;20029;-96
2023/09/25 22:21:18;;;;;;;0.10;0.10;;;;;;;19.96;60.27;100460.25;5205986;27;20078;-96
2023/09/25 22:27:21;;;;;;;0.93;0.93;;;;;;;20.09;60.27;100453.25;5177972;27;20062;-96
2023/09/25 22:29:52;;;;;;;0.50;0.50;;;;;;;20.11;60.28;100461.09;5206303;27;20415;-96
2023/09/25 22:35:56;;;;;;;0.20;0.20;;;;;;;20.00;60.26;100458.25;5305951;27;20079;-96
2023/09/25 22:39:26;;;;;;;0.10;0.10;;;;;;;19.97;60.26;100453.16;5337554;27;20090;-96
2023/09/25 22:43:01;;;;;;;0.15;0.15;;;;;;;19.96;60.26;100452.31;5317918;27;20029;-96
2023/09/25 22:45:50;;;;;;;0.50;0.50;;;;;;;20.00;60.26;100455.62;5224616;27;20073;-96
2023/09/25 22:48:27;;;;;;;3.30;0.95;;;;;;;20.05;60.27;100457.03;5293637;27;20069;-96
2023/09/25 22:51:03;;;;;;;0.45;0.45;;;;;;;19.98;60.27;100446.94;5277428;27;20049;-96
2023/09/25 22:54:29;;;;;;;0.60;0.20;;;;;;;19.73;60.25;100450.19;5281868;27;20068;-96
2023/09/25 22:56:56;;;;;;;0.35;0.35;;;;;;;19.63;60.25;100452.50;5270891;27;20022;-96
2023/09/25 22:59:48;;;;;;;0.68;0.65;;;;;;;19.79;60.26;100450.66;5273746;27;20048;-96
2023/09/25 23:02:24;;;;;;;0.40;0.40;;;;;;;20.01;60.26;100452.03;5293296;27;20057;-96
2023/09/25 23:04:55;;;;;;;0.37;0.30;;;;;;;19.86;60.26;100454.63;5275586;27;20061;-96
2023/09/25 23:07:24;;;;;;;0.88;0.88;;;;;;;19.93;60.25;100450.72;5293450;27;20128;-96
2023/09/25 23:09:53;;;;;;;11.88;2.00;;;;;;;19.65;60.25;100452.44;5274038;27;20033;-96
2023/09/25 23:12:24;;;;;;;0.40;0.40;;;;;;;19.88;60.26;100444.00;5295453;27;20081;-96
2023/09/25 23:15:00;;;;;;;0.40;0.40;;;;;;;19.78;60.25;100440.19;5333773;27;20755;-96
2023/09/25 23:18:01;;;;;;;0.47;0.32;;;;;;;19.74;60.25;100442.16;5303215;26;20021;-96
2023/09/25 23:20:44;;;;;;;0.15;0.15;;;;;;;19.97;60.26;100442.59;5325928;27;20036;-96
2023/09/25 23:23:09;;;;;;;0.68;0.68;;;;;;;19.75;60.25;100443.87;5271470;27;20061;-96
2023/09/25 23:25:35;;;;;;;0.70;0.45;;;;;;;19.89;60.26;100441.28;5274977;26;20038;-95
2023/09/25 23:28:01;;;;;;;0.98;0.93;;;;;;;19.81;60.25;100438.22;5282418;27;20072;-94
2023/09/25 23:30:27;;;;;;;0.77;0.65;;;;;;;19.66;60.24;100443.56;5290878;27;20726;-95
2023/09/25 23:32:52;;;;;;;0.10;0.10;;;;;;;19.81;60.25;100440.84;5287002;27;20096;-95
2023/09/25 23:35:19;;;;;;;0.43;0.43;;;;;;;19.75;60.25;100438.56;5286361;27;20400;-96
2023/09/25 23:37:46;;;;;;;0.25;0.25;;;;;;;19.42;60.23;100436.09;5268125;27;20025;-96
2023/09/25 23:40:16;;;;;;;1.10;0.62;;;;;;;19.48;60.24;100445.44;5286608;27;20065;-95
2023/09/25 23:42:43;;;;;;;0.28;0.28;;;;;;;19.41;60.24;100433.53;5268538;27;20033;-96
2023/09/25 23:45:11;;;;;;;0.35;0.35;;;;;;;19.59;60.24;100437.78;5286587;27;20432;-95
2023/09/25 23:47:36;;;;;;;1.10;0.65;;;;;;;19.75;60.25;100430.66;5286633;27;20116;-95
2023/09/25 23:50:05;;;;;;;0.20;0.20;;;;;;;19.49;60.24;100440.06;5271675;27;20060;-96
2023/09/25 23:52:35;;;;;;;2.12;1.70;;;;;;;19.81;60.25;100430.28;5270886;27;20190;-94
2023/09/25 23:55:04;;;;;;;0.55;0.45;;;;;;;19.63;60.25;100439.28;5273467;27;20057;-96
2023/09/25 23:57:31;;;;;;;0.45;0.22;;;;;;;19.71;60.25;100426.50;5291191;27;20691;-95
